createdAt,value
2022-12-13T00:00:01.371Z,0.2
2022-12-13T00:05:01.338Z,0.2
2022-12-13T00:10:01.326Z,0.2
2022-12-13T00:15:01.343Z,0.2
2022-12-13T00:20:01.355Z,0.2
2022-12-13T00:25:01.338Z,0.2
2022-12-13T00:30:01.337Z,0.2
2022-12-13T00:35:01.327Z,0.1
2022-12-13T00:40:01.351Z,0.1
2022-12-13T00:45:01.332Z,0.1
2022-12-13T00:50:01.329Z,0.1
2022-12-13T00:55:01.330Z,0.1
2022-12-13T01:00:01.342Z,0.1
2022-12-13T01:05:01.330Z,0.1
2022-12-13T01:10:01.333Z,0.1
2022-12-13T01:15:01.324Z,0.1
2022-12-13T01:20:01.359Z,0.1
2022-12-13T01:25:01.318Z,0.1
2022-12-13T01:30:01.321Z,0.1
2022-12-13T01:35:01.458Z,0.1
2022-12-13T01:40:01.356Z,0.1
2022-12-13T01:45:01.310Z,0.1
2022-12-13T01:50:01.317Z,0.1
2022-12-13T01:55:15.175Z,0.1
2022-12-13T02:00:01.341Z,0.1
2022-12-13T02:05:01.417Z,0.1
2022-12-13T02:10:01.322Z,0.1
2022-12-13T02:15:01.448Z,0.1
2022-12-13T02:20:01.340Z,0
2022-12-13T02:25:01.393Z,0
2022-12-13T02:30:01.310Z,0
2022-12-13T02:35:01.523Z,0
2022-12-13T02:40:01.352Z,0
2022-12-13T02:45:01.373Z,0.1
2022-12-13T02:50:01.337Z,0.1
2022-12-13T02:55:01.351Z,0.1
2022-12-13T03:00:01.369Z,0.1
2022-12-13T03:05:01.333Z,0.1
2022-12-13T03:10:01.334Z,0
2022-12-13T03:15:01.341Z,0.1
2022-12-13T03:20:01.363Z,0.1
2022-12-13T03:25:01.329Z,0.1
2022-12-13T03:30:01.341Z,0.1
2022-12-13T03:35:01.483Z,0.1
2022-12-13T03:40:01.355Z,0.1
2022-12-13T03:45:01.334Z,0.1
2022-12-13T03:50:07.461Z,0.1
2022-12-13T03:55:01.393Z,0.1
2022-12-13T04:00:01.440Z,0.1
2022-12-13T04:05:01.381Z,0.1
2022-12-13T04:10:01.319Z,0.1
2022-12-13T04:15:01.330Z,0
2022-12-13T04:20:01.362Z,0
2022-12-13T04:25:01.323Z,0
2022-12-13T04:30:01.314Z,0
2022-12-13T04:35:01.783Z,0
2022-12-13T04:40:01.499Z,0
2022-12-13T04:45:01.306Z,0
2022-12-13T04:50:01.335Z,0
2022-12-13T04:55:01.320Z,0
2022-12-13T05:00:01.344Z,0
2022-12-13T05:05:01.312Z,0
2022-12-13T05:10:01.309Z,0
2022-12-13T05:15:01.306Z,0
2022-12-13T05:20:01.332Z,0
2022-12-13T05:25:01.307Z,0
2022-12-13T05:30:02.460Z,0
2022-12-13T05:35:01.322Z,0
2022-12-13T05:40:01.350Z,0
2022-12-13T05:45:01.303Z,0
2022-12-13T05:50:01.288Z,0
2022-12-13T05:55:01.584Z,0
2022-12-13T06:00:01.318Z,0
2022-12-13T06:05:01.295Z,-0.1
2022-12-13T06:10:09.919Z,-0.1
2022-12-13T06:15:01.682Z,-0.1
2022-12-13T06:20:01.330Z,-0.1
2022-12-13T06:25:01.280Z,-0.1
2022-12-13T06:30:02.748Z,-0.1
2022-12-13T06:35:01.289Z,-0.1
2022-12-13T06:40:01.358Z,-0.1
2022-12-13T06:45:01.282Z,0
2022-12-13T06:50:04.883Z,-0.1
2022-12-13T06:55:01.275Z,0
2022-12-13T07:00:01.386Z,-0.1
2022-12-13T07:05:01.282Z,-0.1
2022-12-13T07:10:01.324Z,-0.1
2022-12-13T07:15:01.312Z,-0.1
2022-12-13T07:20:01.615Z,-0.1
2022-12-13T07:25:01.321Z,-0.1
2022-12-13T07:30:01.315Z,0
2022-12-13T07:35:01.293Z,0
2022-12-13T07:40:04.127Z,-0.1
2022-12-13T07:45:01.299Z,-0.1
2022-12-13T07:50:01.450Z,-0.1
2022-12-13T07:55:01.396Z,0
2022-12-13T08:00:01.533Z,-0.1
2022-12-13T08:05:25.517Z,-0.1
2022-12-13T08:10:01.296Z,-0.1
2022-12-13T08:15:01.301Z,-0.1
2022-12-13T08:20:01.424Z,-0.1
2022-12-13T08:25:01.301Z,-0.1
2022-12-13T08:30:01.294Z,-0.1
2022-12-13T08:35:01.283Z,-0.1
2022-12-13T08:40:01.335Z,-0.1
2022-12-13T08:45:01.358Z,-0.1
2022-12-13T08:50:02.459Z,-0.1
2022-12-13T08:55:01.342Z,-0.1
2022-12-13T09:00:01.285Z,-0.1
2022-12-13T09:05:01.306Z,-0.1
2022-12-13T09:10:07.401Z,-0.1
2022-12-13T09:15:02.061Z,-0.1
2022-12-13T09:20:01.367Z,-0.1
2022-12-13T09:25:02.689Z,-0.1
2022-12-13T09:30:01.325Z,-0.1
2022-12-13T09:35:01.317Z,-0.1
2022-12-13T09:40:15.600Z,-0.1
2022-12-13T09:45:03.628Z,-0.1
2022-12-13T09:50:03.703Z,-0.1
2022-12-13T09:55:01.670Z,-0.1
2022-12-13T10:00:01.864Z,-0.1
2022-12-13T10:05:01.540Z,-0.1
2022-12-13T10:10:01.263Z,-0.1
2022-12-13T10:15:01.261Z,-0.1
2022-12-13T10:20:01.278Z,-0.1
2022-12-13T10:25:01.437Z,-0.1
2022-12-13T10:30:01.467Z,0
2022-12-13T10:35:01.551Z,0
2022-12-13T10:40:01.638Z,0
2022-12-13T10:45:01.591Z,0
2022-12-13T10:50:01.630Z,0
2022-12-13T10:55:01.682Z,0
2022-12-13T11:00:01.674Z,0
2022-12-13T11:05:04.382Z,0
2022-12-13T11:10:05.168Z,0
2022-12-13T11:15:01.794Z,0
2022-12-13T11:20:01.793Z,0.1
2022-12-13T11:25:02.006Z,0.1
2022-12-13T11:30:01.935Z,0.1
2022-12-13T11:35:01.988Z,0.1
2022-12-13T11:40:02.274Z,0.1
2022-12-13T11:45:02.162Z,0.1
2022-12-13T11:50:02.375Z,0.1
2022-12-13T11:55:02.297Z,0.1
2022-12-13T12:00:02.828Z,0.1
2022-12-13T12:05:02.340Z,0.1
2022-12-13T12:10:02.371Z,0.1
2022-12-13T12:15:05.098Z,0.1
2022-12-13T12:20:02.527Z,0.1
2022-12-13T12:25:02.604Z,0.1
2022-12-13T12:30:02.515Z,0.2
2022-12-13T12:35:02.598Z,0.2
2022-12-13T12:40:02.758Z,0.2
2022-12-13T12:45:02.763Z,0.2
2022-12-13T12:50:02.756Z,0.2
2022-12-13T12:55:02.790Z,0.3
2022-12-13T13:00:02.801Z,0.3
2022-12-13T13:05:03.076Z,0.3
2022-12-13T13:10:16.184Z,0.3
2022-12-13T13:15:02.933Z,0.3
2022-12-13T13:20:11.419Z,0.3
2022-12-13T13:25:03.063Z,0.3
2022-12-13T13:30:03.448Z,0.3
2022-12-13T13:35:03.137Z,0.3
2022-12-13T13:40:03.343Z,0.4
2022-12-13T13:45:03.340Z,0.4
2022-12-13T13:50:03.330Z,0.4
2022-12-13T13:55:03.654Z,0.4
2022-12-13T14:00:03.309Z,0.4
2022-12-13T14:05:03.335Z,0.4
2022-12-13T14:10:03.306Z,0.4
2022-12-13T14:15:03.344Z,0.4
2022-12-13T14:20:03.370Z,0.4
2022-12-13T14:25:03.336Z,0.4
2022-12-13T14:30:26.791Z,0.5
2022-12-13T14:35:24.628Z,0.5
2022-12-13T14:40:03.692Z,0.5
2022-12-13T14:45:03.680Z,0.5
2022-12-13T14:50:03.619Z,0.5
2022-12-13T14:55:03.620Z,0.5
2022-12-13T15:00:03.607Z,0.6
2022-12-13T15:05:03.627Z,0.6
2022-12-13T15:10:04.003Z,0.6
2022-12-13T15:15:03.768Z,0.6
2022-12-13T15:20:03.930Z,0.6
2022-12-13T15:25:03.826Z,0.6
2022-12-13T15:30:03.891Z,0.6
2022-12-13T15:35:03.786Z,0.6
2022-12-13T15:40:03.940Z,0.6
2022-12-13T15:45:03.871Z,0.7
2022-12-13T15:50:04.213Z,0.7
2022-12-13T15:55:04.091Z,0.7
2022-12-13T16:00:04.025Z,0.7
2022-12-13T16:05:04.002Z,0.8
2022-12-13T16:10:04.059Z,0.8
2022-12-13T16:15:09.409Z,0.8
2022-12-13T16:20:09.439Z,0.8
2022-12-13T16:25:04.209Z,0.8
2022-12-13T16:30:04.027Z,0.8
2022-12-13T16:35:04.089Z,0.8
2022-12-13T16:40:04.165Z,0.9
2022-12-13T16:45:39.834Z,0.9
2022-12-13T16:50:04.166Z,0.9
2022-12-13T16:55:04.186Z,0.9
2022-12-13T17:00:04.334Z,0.9
2022-12-13T17:05:04.183Z,0.9
2022-12-13T17:10:04.331Z,0.9
2022-12-13T17:15:04.159Z,0.9
2022-12-13T17:20:04.230Z,0.9
2022-12-13T17:25:04.189Z,0.9
2022-12-13T17:30:04.165Z,0.9
2022-12-13T17:35:04.166Z,0.9
2022-12-13T17:40:04.175Z,0.9
2022-12-13T17:45:04.174Z,0.9
2022-12-13T17:50:04.251Z,0.9
2022-12-13T17:55:04.185Z,0.8
2022-12-13T18:00:04.163Z,0.8
2022-12-13T18:05:04.439Z,0.8
2022-12-13T18:10:04.161Z,0.8
2022-12-13T18:15:04.173Z,0.8
2022-12-13T18:20:04.277Z,0.8
2022-12-13T18:25:04.193Z,0.8
2022-12-13T18:30:04.179Z,0.8
2022-12-13T18:35:04.173Z,0.7
2022-12-13T18:40:04.325Z,0.7
2022-12-13T18:45:04.229Z,0.7
2022-12-13T18:50:04.244Z,0.6
2022-12-13T18:55:04.256Z,0.6
2022-12-13T19:00:04.343Z,0.6
2022-12-13T19:05:04.271Z,0.6
2022-12-13T19:10:04.270Z,0.5
2022-12-13T19:15:04.391Z,0.5
2022-12-13T19:20:04.651Z,0.5
2022-12-13T19:25:04.581Z,0.4
2022-12-13T19:30:04.830Z,0.4
2022-12-13T19:35:04.644Z,0.4
2022-12-13T19:40:04.628Z,0.4
2022-12-13T19:45:04.897Z,0.3
2022-12-13T19:50:04.832Z,0.3
2022-12-13T19:55:04.564Z,0.3
2022-12-13T20:00:04.700Z,0.2
2022-12-13T20:05:04.609Z,0.2
2022-12-13T20:10:04.809Z,0.2
2022-12-13T20:15:04.655Z,0.1
2022-12-13T20:20:04.825Z,0.1
2022-12-13T20:25:04.674Z,0.1
2022-12-13T20:30:04.725Z,0.1
2022-12-13T20:35:04.658Z,0
2022-12-13T20:40:04.642Z,0
2022-12-13T20:45:04.668Z,0
2022-12-13T20:50:04.655Z,-0.1
2022-12-13T20:55:05.059Z,-0.1
2022-12-13T21:00:04.644Z,-0.1
2022-12-13T21:05:04.658Z,-0.1
2022-12-13T21:10:04.778Z,-0.2
2022-12-13T21:15:04.927Z,-0.2
2022-12-13T21:20:04.937Z,-0.3
2022-12-13T21:25:04.925Z,-0.3
2022-12-13T21:30:04.897Z,-0.3
2022-12-13T21:35:04.894Z,-0.3
2022-12-13T21:40:04.892Z,-0.4
2022-12-13T21:45:04.916Z,-0.4
2022-12-13T21:50:04.880Z,-0.4
2022-12-13T21:55:30.247Z,-0.4
2022-12-13T22:00:04.915Z,-0.5
2022-12-13T22:05:04.907Z,-0.5
2022-12-13T22:10:04.908Z,-0.5
2022-12-13T22:15:05.221Z,-0.6
2022-12-13T22:20:04.994Z,-0.6
2022-12-13T22:25:04.936Z,-0.6
2022-12-13T22:30:04.919Z,-0.6
2022-12-13T22:35:04.982Z,-0.7
2022-12-13T22:40:05.130Z,-0.7
2022-12-13T22:45:05.056Z,-0.8
2022-12-13T22:50:05.027Z,-0.8
2022-12-13T22:55:05.069Z,-0.8
2022-12-13T23:00:05.050Z,-0.8
2022-12-13T23:05:05.354Z,-0.9
2022-12-13T23:10:05.027Z,-0.9
2022-12-13T23:15:05.040Z,-0.9
2022-12-13T23:20:05.143Z,-0.9
2022-12-13T23:25:05.065Z,-1
2022-12-13T23:30:05.032Z,-1.1
2022-12-13T23:35:05.408Z,-1.1
2022-12-13T23:40:05.042Z,-1.1
2022-12-13T23:45:05.048Z,-1.1
2022-12-13T23:50:05.018Z,-1.2
2022-12-13T23:55:05.157Z,-1.2
